You are not logged in, Click here to log in
西雅圖-塔科馬國際機場SEA / KSEA 美國華盛頓州大西雅圖
ICAO: KSEA Country: 美國華盛頓州大西雅圖
Latitude: 47.4502 Longitude: -122.309
Total Arrivals: 13 Total Departures: 14
Latest Arrival: EN943 (PANC-KSEA)CHUANYI. Lin Latest Departure: CP5705 (KSEA-KSFO)Chun Tang. Chiang
Scenery:
METAR : KSEA 080253Z 00000KT 10SM OVC011 10/08 A2977 RMK AO2 SLP089 T01000083 51012

西雅圖-塔科馬國際機場SEA